Time;durP1;ratioP1;P1;durP2;ratioP2;P2;SDS_P1;SDS_P2;PMS_P1;PMS_P2;Temp;Humidity;BMP_temperature;BMP_pressure;BME280_temperature;BME280_humidity;BME280_pressure;Samples;Min_cycle;Max_cycle;Signal;HPM_P1;HPM_P2
2022/04/08 00:00:41;;;;;;;161.30;68.70;;;;;;;;;;5097729;28;20452;-73
2022/04/08 00:03:11;;;;;;;173.80;66.30;;;;;;;;;;5097781;28;20570;-73
2022/04/08 00:05:38;;;;;;;173.93;68.00;;;;;;;;;;5098152;28;20852;-73
2022/04/08 00:08:07;;;;;;;182.50;66.70;;;;;;;;;;5098615;28;20485;-74
2022/04/08 00:10:35;;;;;;;181.77;66.93;;;;;;;;;;5098105;28;20872;-74
2022/04/08 00:13:02;;;;;;;182.97;68.70;;;;;;;;;;5097923;28;20452;-74
2022/04/08 00:15:33;;;;;;;155.50;60.40;;;;;;;;;;5097909;28;20908;-74
2022/04/08 00:18:03;;;;;;;163.90;66.53;;;;;;;;;;5097757;28;20516;-74
2022/04/08 00:20:32;;;;;;;180.93;67.73;;;;;;;;;;5098328;28;20879;-74
2022/04/08 00:23:01;;;;;;;153.63;62.70;;;;;;;;;;5096573;28;20529;-73
2022/04/08 00:25:29;;;;;;;160.67;61.77;;;;;;;;;;5098052;28;20483;-73
2022/04/08 00:27:57;;;;;;;155.10;60.40;;;;;;;;;;5098203;28;20513;-73
2022/04/08 00:30:25;;;;;;;148.60;61.47;;;;;;;;;;5097430;28;20455;-74
2022/04/08 00:32:53;;;;;;;179.80;67.03;;;;;;;;;;5098190;28;20797;-74
2022/04/08 00:35:20;;;;;;;158.87;63.60;;;;;;;;;;5097900;28;20545;-71
2022/04/08 00:37:50;;;;;;;162.33;66.20;;;;;;;;;;5100031;28;20467;-74
2022/04/08 00:40:18;;;;;;;150.93;64.97;;;;;;;;;;5099377;28;20471;-73
2022/04/08 00:42:45;;;;;;;164.80;67.20;;;;;;;;;;5097675;28;20462;-73
2022/04/08 00:45:13;;;;;;;163.20;64.07;;;;;;;;;;5098281;28;20870;-73
2022/04/08 00:47:41;;;;;;;176.70;64.60;;;;;;;;;;5098419;28;20567;-73
2022/04/08 00:50:09;;;;;;;152.90;62.33;;;;;;;;;;5095797;28;20451;-73
2022/04/08 00:52:38;;;;;;;138.33;61.77;;;;;;;;;;5097888;28;20866;-74
2022/04/08 00:55:08;;;;;;;166.30;64.87;;;;;;;;;;5097419;28;20447;-73
2022/04/08 00:57:35;;;;;;;157.77;59.63;;;;;;;;;;5098086;28;20481;-74
2022/04/08 01:00:12;;;;;;;148.07;60.47;;;;;;;;;;5097375;28;20452;-74
2022/04/08 01:02:40;;;;;;;146.10;59.77;;;;;;;;;;5096523;28;20525;-74
2022/04/08 01:05:09;;;;;;;146.77;60.57;;;;;;;;;;5096837;28;20466;-73
2022/04/08 01:07:44;;;;;;;148.27;59.63;;;;;;;;;;5096909;28;20475;-74
2022/04/08 01:10:13;;;;;;;189.13;58.40;;;;;;;;;;5097348;28;20828;-74
2022/04/08 01:12:52;;;;;;;155.27;61.60;;;;;;;;;;5097184;28;20456;-73
2022/04/08 01:15:20;;;;;;;151.87;59.27;;;;;;;;;;5096901;28;20458;-74
2022/04/08 01:17:49;;;;;;;146.03;58.10;;;;;;;;;;5092814;28;20883;-73
2022/04/08 01:20:16;;;;;;;153.70;60.10;;;;;;;;;;5088160;28;20452;-73
2022/04/08 01:22:44;;;;;;;141.80;59.70;;;;;;;;;;5082250;28;20455;-73
2022/04/08 01:25:15;;;;;;;132.10;57.77;;;;;;;;;;5085699;28;20528;-73
2022/04/08 01:27:50;;;;;;;127.10;55.93;;;;;;;;;;5096431;28;20900;-73
2022/04/08 01:30:18;;;;;;;121.00;56.47;;;;;;;;;;5092555;28;20466;-73
2022/04/08 01:32:54;;;;;;;141.10;60.10;;;;;;;;;;5077004;28;20456;-73
2022/04/08 01:35:23;;;;;;;138.87;57.17;;;;;;;;;;5086372;28;20463;-73
2022/04/08 01:37:50;;;;;;;153.67;58.27;;;;;;;;;;5097158;28;20456;-73
2022/04/08 01:40:20;;;;;;;177.40;62.17;;;;;;;;;;5097217;28;20515;-73
2022/04/08 01:42:57;;;;;;;175.97;60.53;;;;;;;;;;5096464;28;20467;-73
2022/04/08 01:45:25;;;;;;;168.27;59.40;;;;;;;;;;5098864;28;20778;-74
2022/04/08 01:47:53;;;;;;;160.87;58.03;;;;;;;;;;5097463;28;20468;-74
2022/04/08 01:50:32;;;;;;;166.23;62.03;;;;;;;;;;5096257;28;20452;-73
2022/04/08 01:53:03;;;;;;;164.70;62.23;;;;;;;;;;5096677;28;20553;-74
2022/04/08 01:55:33;;;;;;;162.57;61.20;;;;;;;;;;5095508;28;20448;-73
2022/04/08 01:58:02;;;;;;;163.83;61.47;;;;;;;;;;5096351;28;20464;-73
2022/04/08 02:00:30;;;;;;;166.97;61.53;;;;;;;;;;5096331;28;20538;-73
2022/04/08 02:02:57;;;;;;;168.33;63.00;;;;;;;;;;5096492;28;20463;-73
2022/04/08 02:05:25;;;;;;;173.30;62.20;;;;;;;;;;5096502;28;20917;-73
2022/04/08 02:07:54;;;;;;;152.40;56.93;;;;;;;;;;5096601;28;20471;-73
2022/04/08 02:10:23;;;;;;;151.83;59.90;;;;;;;;;;5096776;28;20458;-74
2022/04/08 02:12:53;;;;;;;157.20;59.10;;;;;;;;;;5096508;28;20467;-73
2022/04/08 02:15:20;;;;;;;155.20;58.80;;;;;;;;;;5095636;28;20462;-73
2022/04/08 02:17:56;;;;;;;136.83;56.90;;;;;;;;;;5095820;28;20448;-73
2022/04/08 02:20:24;;;;;;;147.60;58.10;;;;;;;;;;5096855;28;20435;-73
2022/04/08 02:22:56;;;;;;;153.67;59.47;;;;;;;;;;5096191;28;20448;-73
2022/04/08 02:25:28;;;;;;;157.43;58.87;;;;;;;;;;5084657;28;20730;-74
2022/04/08 02:28:01;;;;;;;164.73;60.77;;;;;;;;;;5076430;28;20463;-73
2022/04/08 02:30:34;;;;;;;176.03;62.50;;;;;;;;;;5078477;28;20466;-74
2022/04/08 02:33:05;;;;;;;172.30;63.97;;;;;;;;;;5080987;28;20491;-73
2022/04/08 02:35:35;;;;;;;172.03;61.23;;;;;;;;;;5075724;28;20458;-73
2022/04/08 02:38:09;;;;;;;158.53;59.57;;;;;;;;;;5075503;28;20839;-72
2022/04/08 02:40:39;;;;;;;171.60;64.60;;;;;;;;;;5078990;28;20467;-74
2022/04/08 02:43:08;;;;;;;149.80;58.60;;;;;;;;;;5095929;28;20455;-72
2022/04/08 02:45:36;;;;;;;140.03;56.30;;;;;;;;;;5097208;28;20454;-72
2022/04/08 02:48:04;;;;;;;153.47;59.50;;;;;;;;;;5100691;28;20455;-72
2022/04/08 02:50:32;;;;;;;138.03;56.17;;;;;;;;;;5099716;28;20494;-71
2022/04/08 02:52:59;;;;;;;125.43;55.27;;;;;;;;;;5079845;28;21053;-72
2022/04/08 02:55:27;;;;;;;133.77;53.90;;;;;;;;;;5079120;28;20448;-73
2022/04/08 02:57:55;;;;;;;164.70;60.00;;;;;;;;;;5079093;28;20498;-73
2022/04/08 03:00:25;;;;;;;152.70;57.60;;;;;;;;;;5079113;28;20456;-72
2022/04/08 03:02:53;;;;;;;163.70;61.90;;;;;;;;;;5079308;28;20934;-73
2022/04/08 03:05:21;;;;;;;174.80;61.00;;;;;;;;;;5079486;28;20526;-72
2022/04/08 03:07:48;;;;;;;159.27;59.47;;;;;;;;;;5079411;28;20829;-72
2022/04/08 03:10:19;;;;;;;139.70;55.70;;;;;;;;;;5079315;28;20451;-73
2022/04/08 03:12:47;;;;;;;140.57;56.13;;;;;;;;;;5089570;28;20898;-72
2022/04/08 03:15:14;;;;;;;138.17;56.10;;;;;;;;;;5098884;28;20439;-72
2022/04/08 03:17:45;;;;;;;161.07;58.70;;;;;;;;;;5098714;28;20573;-73
2022/04/08 03:20:12;;;;;;;152.70;58.90;;;;;;;;;;5098732;28;20448;-72
2022/04/08 03:22:40;;;;;;;153.00;54.70;;;;;;;;;;5099021;28;20463;-72
2022/04/08 03:25:08;;;;;;;163.70;56.67;;;;;;;;;;5094562;28;20468;-73
2022/04/08 03:27:35;;;;;;;157.90;57.00;;;;;;;;;;5097582;28;20451;-72
2022/04/08 03:30:03;;;;;;;159.23;56.47;;;;;;;;;;5098710;28;20449;-73
2022/04/08 03:32:36;;;;;;;137.07;52.87;;;;;;;;;;5098455;28;20558;-73
2022/04/08 03:35:05;;;;;;;153.13;54.10;;;;;;;;;;5098926;28;20459;-73
2022/04/08 03:37:33;;;;;;;157.47;57.33;;;;;;;;;;5098402;28;20497;-73
2022/04/08 03:40:00;;;;;;;177.00;60.47;;;;;;;;;;5098969;28;20482;-73
2022/04/08 03:42:30;;;;;;;152.07;53.70;;;;;;;;;;5098954;28;20497;-73
2022/04/08 03:45:01;;;;;;;165.23;57.47;;;;;;;;;;5097739;28;20452;-73
2022/04/08 03:47:29;;;;;;;152.63;56.80;;;;;;;;;;5098140;28;20542;-73
2022/04/08 03:50:00;;;;;;;156.37;57.33;;;;;;;;;;5098521;28;20447;-73
2022/04/08 03:52:32;;;;;;;149.57;55.17;;;;;;;;;;5098055;28;20451;-73
2022/04/08 03:55:00;;;;;;;163.07;58.10;;;;;;;;;;5098786;28;20455;-73
2022/04/08 03:57:28;;;;;;;142.33;55.80;;;;;;;;;;5096763;28;20981;-73
2022/04/08 03:59:55;;;;;;;116.00;51.17;;;;;;;;;;5098363;28;20451;-73
2022/04/08 04:02:24;;;;;;;119.33;51.27;;;;;;;;;;5097908;28;20462;-73
2022/04/08 04:04:55;;;;;;;155.20;56.43;;;;;;;;;;5097887;28;20480;-73
2022/04/08 04:07:23;;;;;;;151.53;56.00;;;;;;;;;;5098101;28;20448;-72
2022/04/08 04:09:52;;;;;;;166.30;57.83;;;;;;;;;;5098146;28;20560;-73
2022/04/08 04:12:20;;;;;;;136.60;52.63;;;;;;;;;;5097588;28;20478;-73
2022/04/08 04:14:47;;;;;;;154.20;58.07;;;;;;;;;;5098311;28;20444;-73
2022/04/08 04:17:15;;;;;;;173.30;61.17;;;;;;;;;;5096783;28;20484;-73
2022/04/08 04:19:44;;;;;;;175.87;59.60;;;;;;;;;;5089854;28;20465;-73
2022/04/08 04:22:12;;;;;;;175.80;58.83;;;;;;;;;;5077242;28;20456;-72
2022/04/08 04:24:40;;;;;;;184.47;58.83;;;;;;;;;;5077171;28;20444;-72
2022/04/08 04:27:12;;;;;;;148.03;57.57;;;;;;;;;;5077584;28;20445;-72
2022/04/08 04:29:40;;;;;;;155.00;59.00;;;;;;;;;;5077071;28;20819;-72
2022/04/08 04:32:08;;;;;;;174.57;61.60;;;;;;;;;;5083697;28;20497;-72
2022/04/08 04:34:37;;;;;;;164.67;56.60;;;;;;;;;;5097130;28;20448;-72
2022/04/08 04:37:08;;;;;;;144.17;55.43;;;;;;;;;;5097100;28;20498;-72
2022/04/08 04:39:37;;;;;;;160.03;58.93;;;;;;;;;;5096974;28;20509;-72
2022/04/08 04:42:07;;;;;;;162.13;57.07;;;;;;;;;;5097265;28;20470;-72
2022/04/08 04:44:36;;;;;;;177.70;62.53;;;;;;;;;;5097452;28;20794;-72
2022/04/08 04:47:04;;;;;;;155.30;55.60;;;;;;;;;;5096444;28;20444;-73
2022/04/08 04:49:32;;;;;;;158.60;54.00;;;;;;;;;;5096811;28;20463;-72
2022/04/08 04:52:02;;;;;;;154.77;55.67;;;;;;;;;;5096647;28;20466;-72
2022/04/08 04:54:29;;;;;;;176.40;59.67;;;;;;;;;;5096916;28;20574;-72
2022/04/08 04:56:57;;;;;;;194.20;61.33;;;;;;;;;;5096768;28;20564;-71
2022/04/08 04:59:25;;;;;;;162.87;58.47;;;;;;;;;;5096819;28;20793;-72
2022/04/08 05:01:55;;;;;;;169.53;61.30;;;;;;;;;;5096246;28;20859;-72
2022/04/08 05:04:23;;;;;;;154.80;56.20;;;;;;;;;;5096295;28;20452;-72
2022/04/08 05:06:51;;;;;;;164.97;57.30;;;;;;;;;;5096187;28;20454;-72
2022/04/08 05:09:19;;;;;;;169.27;58.37;;;;;;;;;;5095749;28;20467;-72
2022/04/08 05:11:46;;;;;;;152.43;60.57;;;;;;;;;;5096546;28;20527;-72
2022/04/08 05:14:14;;;;;;;154.90;58.40;;;;;;;;;;5095873;28;20498;-72
2022/04/08 05:16:41;;;;;;;140.70;53.67;;;;;;;;;;5096053;28;20532;-72
2022/04/08 05:19:11;;;;;;;166.47;62.47;;;;;;;;;;5088502;28;20526;-71
2022/04/08 05:21:39;;;;;;;159.60;55.80;;;;;;;;;;5074864;28;20469;-71
2022/04/08 05:24:07;;;;;;;163.40;55.77;;;;;;;;;;5075869;28;20460;-71
2022/04/08 05:26:34;;;;;;;168.83;57.27;;;;;;;;;;5075786;28;20582;-72
2022/04/08 05:29:05;;;;;;;166.03;60.87;;;;;;;;;;5075392;28;20471;-72
2022/04/08 05:31:33;;;;;;;176.77;63.10;;;;;;;;;;5075554;28;20449;-72
2022/04/08 05:34:00;;;;;;;184.63;61.23;;;;;;;;;;5089807;28;20484;-72
2022/04/08 05:36:29;;;;;;;152.60;57.07;;;;;;;;;;5095835;28;20460;-72
2022/04/08 05:38:57;;;;;;;158.47;60.10;;;;;;;;;;5094779;28;20470;-72
2022/04/08 05:41:27;;;;;;;188.43;63.70;;;;;;;;;;5094016;28;20483;-73
2022/04/08 05:43:57;;;;;;;173.90;62.33;;;;;;;;;;5095142;28;20468;-73
2022/04/08 05:46:24;;;;;;;172.27;60.60;;;;;;;;;;5094246;28;20440;-73
2022/04/08 05:48:52;;;;;;;172.23;61.33;;;;;;;;;;5094169;28;20448;-72
2022/04/08 05:51:20;;;;;;;166.63;62.07;;;;;;;;;;5095322;28;20456;-72
2022/04/08 05:53:51;;;;;;;146.23;57.47;;;;;;;;;;5093645;28;20544;-72
2022/04/08 05:56:19;;;;;;;122.73;55.03;;;;;;;;;;5086453;28;20445;-72
2022/04/08 05:58:47;;;;;;;130.73;55.00;;;;;;;;;;5074328;28;20527;-72
2022/04/08 06:01:15;;;;;;;146.17;64.87;;;;;;;;;;5074563;28;20455;-72
2022/04/08 06:03:43;;;;;;;139.23;58.23;;;;;;;;;;5074260;28;20460;-72
2022/04/08 06:06:15;;;;;;;146.50;58.90;;;;;;;;;;5086653;28;20566;-73
2022/04/08 06:08:42;;;;;;;131.40;57.07;;;;;;;;;;5094895;28;21061;-73
2022/04/08 06:11:11;;;;;;;134.93;56.90;;;;;;;;;;5094498;28;20539;-72
2022/04/08 06:13:40;;;;;;;146.43;59.07;;;;;;;;;;5094152;28;20760;-73
2022/04/08 06:16:24;;;;;;;115.40;59.80;;;;;;;;;;5092739;28;20539;-72
2022/04/08 06:19:00;;;;;;;111.90;56.00;;;;;;;;;;5099833;28;20486;-72
2022/04/08 06:21:28;;;;;;;143.30;61.17;;;;;;;;;;5077927;28;20460;-73
2022/04/08 06:24:07;;;;;;;133.60;57.90;;;;;;;;;;5090449;28;20450;-71
2022/04/08 06:26:38;;;;;;;153.50;60.70;;;;;;;;;;5083936;28;21179;-73
2022/04/08 06:29:14;;;;;;;144.80;60.70;;;;;;;;;;5099657;28;20459;-72
2022/04/08 06:31:42;;;;;;;153.30;60.43;;;;;;;;;;5092772;28;20467;-73
2022/04/08 06:34:13;;;;;;;150.10;60.67;;;;;;;;;;5078572;28;20463;-73
2022/04/08 06:36:42;;;;;;;136.67;59.47;;;;;;;;;;5077930;28;20460;-73
2022/04/08 06:39:09;;;;;;;134.10;57.37;;;;;;;;;;5076709;28;20479;-73
2022/04/08 06:41:39;;;;;;;135.87;58.37;;;;;;;;;;5077415;28;21095;-73
2022/04/08 06:44:07;;;;;;;140.23;62.40;;;;;;;;;;5078238;28;20522;-72
2022/04/08 06:46:38;;;;;;;153.10;67.03;;;;;;;;;;5094552;28;20469;-73
2022/04/08 06:49:10;;;;;;;151.20;63.30;;;;;;;;;;5096109;28;20554;-72
2022/04/08 06:51:38;;;;;;;134.37;63.00;;;;;;;;;;5097026;28;20547;-73
2022/04/08 06:54:05;;;;;;;139.20;62.83;;;;;;;;;;5090878;28;20546;-73
2022/04/08 06:56:33;;;;;;;150.57;64.60;;;;;;;;;;5096847;28;20480;-72
2022/04/08 06:59:02;;;;;;;146.53;65.10;;;;;;;;;;5096256;28;20505;-72
2022/04/08 07:01:30;;;;;;;139.63;60.20;;;;;;;;;;5083284;28;20517;-72
2022/04/08 07:03:58;;;;;;;147.60;63.50;;;;;;;;;;5097330;28;20498;-72
2022/04/08 07:06:26;;;;;;;153.73;65.83;;;;;;;;;;5098181;28;20460;-72
2022/04/08 07:08:55;;;;;;;149.87;68.00;;;;;;;;;;5096053;28;20466;-72
2022/04/08 07:11:27;;;;;;;151.30;67.13;;;;;;;;;;5091600;28;20527;-72
2022/04/08 07:13:54;;;;;;;167.93;71.03;;;;;;;;;;5094214;28;20456;-72
2022/04/08 07:16:26;;;;;;;154.63;64.10;;;;;;;;;;5096439;28;20433;-73
2022/04/08 07:18:55;;;;;;;164.70;67.33;;;;;;;;;;5096068;28;20471;-72
2022/04/08 07:21:23;;;;;;;150.87;65.80;;;;;;;;;;5095357;28;20527;-72
2022/04/08 07:23:51;;;;;;;147.67;66.40;;;;;;;;;;5096349;28;20836;-72
2022/04/08 07:26:20;;;;;;;154.53;68.43;;;;;;;;;;5096908;28;20456;-71
2022/04/08 07:28:51;;;;;;;160.50;67.37;;;;;;;;;;5103746;28;20516;-72
2022/04/08 07:31:19;;;;;;;157.20;67.37;;;;;;;;;;5116661;28;20478;-72
2022/04/08 07:33:49;;;;;;;161.93;68.90;;;;;;;;;;5113428;28;20718;-71
2022/04/08 07:36:17;;;;;;;149.93;64.63;;;;;;;;;;5081942;28;20448;-71
2022/04/08 07:39:05;;;;;;;156.77;66.10;;;;;;;;;;5076980;28;20479;-71
2022/04/08 07:41:43;;;;;;;159.40;67.67;;;;;;;;;;5082635;28;20466;-73
2022/04/08 07:44:12;;;;;;;151.70;62.97;;;;;;;;;;5096688;28;20527;-72
2022/04/08 07:46:43;;;;;;;151.77;60.67;;;;;;;;;;5096026;28;20559;-72
2022/04/08 07:49:17;;;;;;;149.00;65.80;;;;;;;;;;5096650;28;20450;-74
2022/04/08 07:51:46;;;;;;;156.23;66.90;;;;;;;;;;5089025;28;20512;-73
2022/04/08 07:54:14;;;;;;;146.37;62.00;;;;;;;;;;5095739;28;20515;-74
2022/04/08 07:56:42;;;;;;;128.90;62.47;;;;;;;;;;5096410;28;20617;-74
2022/04/08 07:59:09;;;;;;;138.40;61.00;;;;;;;;;;5096408;28;20596;-74
2022/04/08 08:01:37;;;;;;;142.57;66.27;;;;;;;;;;5095327;28;20455;-74
2022/04/08 08:04:05;;;;;;;156.47;64.50;;;;;;;;;;5096212;28;20455;-73
2022/04/08 08:06:34;;;;;;;155.87;62.90;;;;;;;;;;5096602;28;20872;-73
2022/04/08 08:09:02;;;;;;;162.90;67.30;;;;;;;;;;5096772;28;20440;-73
2022/04/08 08:11:30;;;;;;;178.67;65.60;;;;;;;;;;5096222;28;20444;-74
2022/04/08 08:14:02;;;;;;;156.70;61.40;;;;;;;;;;5096384;28;20456;-72
2022/04/08 08:16:38;;;;;;;163.40;66.17;;;;;;;;;;5096660;28;20460;-75
2022/04/08 08:19:11;;;;;;;167.53;65.40;;;;;;;;;;5096940;28;20556;-73
2022/04/08 08:31:53;;;;;;;147.17;69.47;;;;;;;;;;5045783;28;20572;-73
2022/04/08 08:38:15;;;;;;;;;;;;;;;;;;;;;
2022/04/08 08:47:13;;;;;;;155.87;69.70;;;;;;;;;;5067594;28;20533;-73
2022/04/08 08:49:46;;;;;;;157.40;71.47;;;;;;;;;;5093864;28;20799;-73
2022/04/08 08:52:14;;;;;;;162.87;76.40;;;;;;;;;;5094870;28;20450;-73
2022/04/08 08:54:48;;;;;;;184.53;78.97;;;;;;;;;;5094919;28;20455;-74
2022/04/08 08:57:17;;;;;;;155.23;66.40;;;;;;;;;;5095620;28;20471;-73
2022/04/08 08:59:46;;;;;;;170.27;72.60;;;;;;;;;;5108307;28;20547;-73
2022/04/08 09:02:23;;;;;;;160.20;75.07;;;;;;;;;;5105319;28;21864;-73
2022/04/08 09:04:56;;;;;;;167.47;73.83;;;;;;;;;;5085588;28;20922;-74
2022/04/08 09:07:31;;;;;;;154.27;70.87;;;;;;;;;;5094334;28;20448;-72
2022/04/08 09:10:03;;;;;;;203.83;78.93;;;;;;;;;;5094054;28;20444;-74
2022/04/08 09:12:35;;;;;;;149.57;69.63;;;;;;;;;;5095334;28;20452;-73
2022/04/08 09:15:18;;;;;;;161.03;73.97;;;;;;;;;;5092728;28;20474;-74
2022/04/08 09:20:56;;;;;;;162.47;71.93;;;;;;;;;;5094559;28;20440;-73
2022/04/08 09:23:26;;;;;;;164.30;75.70;;;;;;;;;;5081713;28;20564;-73
2022/04/08 09:26:05;;;;;;;150.63;74.87;;;;;;;;;;5092443;28;20490;-72
2022/04/08 09:28:40;;;;;;;140.20;79.50;;;;;;;;;;5095148;28;20443;-73
2022/04/08 09:31:25;;;;;;;150.93;72.77;;;;;;;;;;5095973;28;20519;-73
2022/04/08 09:37:15;;;;;;;185.60;83.93;;;;;;;;;;5069070;28;20920;-73
2022/04/08 09:40:05;;;;;;;169.33;74.23;;;;;;;;;;5074831;28;20998;-75
2022/04/08 09:42:42;;;;;;;175.70;72.10;;;;;;;;;;5086730;28;20477;-72
2022/04/08 09:48:18;;;;;;;170.80;75.20;;;;;;;;;;5086951;28;20458;-72
2022/04/08 09:51:04;;;;;;;173.50;82.13;;;;;;;;;;5094551;28;20540;-73
2022/04/08 09:53:33;;;;;;;180.57;83.53;;;;;;;;;;5094927;28;20486;-72
2022/04/08 09:56:11;;;;;;;193.87;85.13;;;;;;;;;;5094227;28;20491;-73
2022/04/08 09:58:41;;;;;;;161.27;80.97;;;;;;;;;;5093048;28;20480;-73
2022/04/08 10:01:16;;;;;;;171.77;92.17;;;;;;;;;;5092466;28;20451;-73
2022/04/08 10:03:49;;;;;;;168.50;83.27;;;;;;;;;;5079398;28;20533;-73
2022/04/08 10:06:30;;;;;;;166.17;85.47;;;;;;;;;;5089772;28;20859;-73
2022/04/08 10:08:59;;;;;;;171.60;80.40;;;;;;;;;;5090919;28;20443;-74
2022/04/08 10:11:37;;;;;;;158.10;78.27;;;;;;;;;;5087701;28;20452;-73
2022/04/08 10:14:24;;;;;;;166.57;84.80;;;;;;;;;;5075045;28;20545;-73
2022/04/08 10:16:54;;;;;;;56.97;50.93;;;;;;;;;;5063334;28;20543;-73
2022/04/08 10:19:25;;;;;;;112.03;71.70;;;;;;;;;;5073016;28;20901;-74
2022/04/08 10:25:15;;;;;;;161.50;79.63;;;;;;;;;;5083314;28;20492;-74
2022/04/08 10:27:44;;;;;;;173.90;81.43;;;;;;;;;;5086578;28;20440;-74
2022/04/08 10:30:13;;;;;;;158.47;88.20;;;;;;;;;;5096581;28;20573;-74
2022/04/08 10:32:54;;;;;;;139.40;87.60;;;;;;;;;;5112113;28;20537;-74
2022/04/08 10:35:24;;;;;;;131.03;78.70;;;;;;;;;;5091251;28;20451;-74
2022/04/08 10:38:06;;;;;;;135.60;84.20;;;;;;;;;;5088814;28;20900;-74
2022/04/08 10:40:39;;;;;;;155.10;85.37;;;;;;;;;;5073845;28;20468;-74
2022/04/08 10:43:14;;;;;;;157.23;77.83;;;;;;;;;;5093494;28;20452;-73
2022/04/08 10:45:53;;;;;;;125.90;80.33;;;;;;;;;;5091843;28;20459;-74
2022/04/08 10:48:22;;;;;;;153.13;80.70;;;;;;;;;;5086145;28;20451;-73
2022/04/08 10:50:54;;;;;;;144.10;85.10;;;;;;;;;;5092524;28;20456;-74
2022/04/08 10:53:24;;;;;;;128.07;82.77;;;;;;;;;;5093956;28;20451;-73
2022/04/08 10:56:23;;;;;;;149.93;90.73;;;;;;;;;;5098354;28;20913;-72
2022/04/08 11:02:06;;;;;;;140.30;86.50;;;;;;;;;;5085434;28;20440;-73
2022/04/08 11:04:34;;;;;;;159.30;97.43;;;;;;;;;;5081811;28;20467;-74
2022/04/08 11:07:09;;;;;;;142.83;98.00;;;;;;;;;;5085513;28;20517;-74
2022/04/08 11:09:37;;;;;;;132.67;88.37;;;;;;;;;;5095907;28;20439;-74
2022/04/08 11:12:06;;;;;;;143.30;88.57;;;;;;;;;;5095330;28;20770;-75
2022/04/08 11:14:33;;;;;;;127.03;83.57;;;;;;;;;;5077695;28;20459;-73
2022/04/08 11:17:03;;;;;;;158.40;83.87;;;;;;;;;;5076805;28;20491;-74
2022/04/08 11:19:36;;;;;;;181.00;97.17;;;;;;;;;;5076891;28;20472;-74
2022/04/08 11:22:29;;;;;;;162.20;83.87;;;;;;;;;;5076438;28;20457;-73
2022/04/08 11:24:58;;;;;;;170.33;91.37;;;;;;;;;;5086332;28;20559;-73
2022/04/08 11:27:31;;;;;;;163.17;99.80;;;;;;;;;;5092403;28;20540;-74
2022/04/08 11:29:58;;;;;;;152.07;91.10;;;;;;;;;;5096095;28;20455;-74
2022/04/08 11:35:24;;;;;;;158.77;89.33;;;;;;;;;;5076212;28;20927;-74
2022/04/08 11:38:13;;;;;;;157.97;86.57;;;;;;;;;;5096668;28;20439;-74
2022/04/08 11:40:42;;;;;;;173.63;95.17;;;;;;;;;;5094289;28;20483;-72
2022/04/08 11:43:14;;;;;;;166.73;94.47;;;;;;;;;;5104819;28;20451;-74
2022/04/08 11:45:42;;;;;;;105.67;72.60;;;;;;;;;;5082401;28;20484;-73
2022/04/08 11:48:16;;;;;;;172.80;90.47;;;;;;;;;;5075503;28;20453;-74
2022/04/08 11:50:46;;;;;;;148.70;88.87;;;;;;;;;;5075366;28;20452;-74
2022/04/08 11:53:17;;;;;;;152.23;91.27;;;;;;;;;;5076029;28;20488;-74
2022/04/08 11:55:59;;;;;;;171.37;91.97;;;;;;;;;;5093736;28;20454;-73
2022/04/08 11:58:27;;;;;;;157.30;84.93;;;;;;;;;;5096559;28;20501;-73
2022/04/08 12:00:55;;;;;;;156.37;86.23;;;;;;;;;;5085815;28;20565;-75
2022/04/08 12:03:27;;;;;;;164.10;87.03;;;;;;;;;;5077325;28;20452;-74
2022/04/08 12:06:07;;;;;;;173.30;84.67;;;;;;;;;;5095349;28;20907;-74
2022/04/08 12:08:44;;;;;;;174.00;88.90;;;;;;;;;;5083611;28;20568;-75
2022/04/08 12:11:12;;;;;;;145.20;77.23;;;;;;;;;;5076509;28;20453;-76
2022/04/08 12:13:42;;;;;;;117.37;78.73;;;;;;;;;;5074673;28;20440;-76
2022/04/08 12:19:03;;;;;;;120.87;73.43;;;;;;;;;;5072424;28;20472;-74
2022/04/08 12:21:39;;;;;;;149.53;84.63;;;;;;;;;;5075147;28;20596;-75
2022/04/08 12:24:08;;;;;;;141.20;82.60;;;;;;;;;;5075266;28;20452;-75
2022/04/08 12:26:37;;;;;;;157.97;81.87;;;;;;;;;;5075417;28;20865;-75
2022/04/08 12:29:07;;;;;;;157.30;89.90;;;;;;;;;;5075276;28;20445;-74
2022/04/08 12:31:45;;;;;;;163.10;83.03;;;;;;;;;;5075085;28;20453;-74
2022/04/08 12:34:14;;;;;;;155.30;76.00;;;;;;;;;;5105932;28;20886;-74
2022/04/08 12:36:43;;;;;;;126.33;66.50;;;;;;;;;;5116164;28;20458;-74
2022/04/08 12:39:12;;;;;;;136.60;69.30;;;;;;;;;;5115013;28;20578;-73
2022/04/08 12:41:40;;;;;;;127.83;60.77;;;;;;;;;;5115783;28;20519;-73
2022/04/08 12:44:09;;;;;;;120.10;58.00;;;;;;;;;;5077397;28;20813;-73
2022/04/08 12:46:39;;;;;;;128.40;62.47;;;;;;;;;;5074242;28;20484;-74
2022/04/08 12:49:07;;;;;;;141.73;68.80;;;;;;;;;;5074848;28;20887;-74
2022/04/08 12:51:35;;;;;;;120.57;63.47;;;;;;;;;;5075282;28;20680;-73
2022/04/08 12:54:05;;;;;;;127.17;63.60;;;;;;;;;;5074212;28;20453;-74
2022/04/08 12:56:43;;;;;;;140.87;66.43;;;;;;;;;;5091549;28;20518;-74
2022/04/08 12:59:11;;;;;;;143.60;68.67;;;;;;;;;;5095044;28;20475;-73
2022/04/08 13:01:39;;;;;;;160.70;77.57;;;;;;;;;;5093769;28;20463;-73
2022/04/08 13:04:10;;;;;;;140.03;67.57;;;;;;;;;;5091500;28;20471;-73
2022/04/08 13:06:39;;;;;;;130.07;70.13;;;;;;;;;;5094373;28;20520;-74
2022/04/08 13:09:09;;;;;;;154.90;72.83;;;;;;;;;;5093480;28;20455;-74
2022/04/08 13:11:42;;;;;;;186.33;80.13;;;;;;;;;;5087339;28;20863;-75
2022/04/08 13:14:20;;;;;;;162.20;70.50;;;;;;;;;;5088973;28;20447;-74
2022/04/08 13:16:48;;;;;;;178.73;78.07;;;;;;;;;;5089140;28;20459;-74
2022/04/08 13:19:16;;;;;;;170.37;78.00;;;;;;;;;;5091767;28;20476;-74
2022/04/08 13:21:45;;;;;;;160.83;73.23;;;;;;;;;;5092884;28;20535;-74
2022/04/08 13:24:28;;;;;;;156.70;75.57;;;;;;;;;;5098752;28;20436;-74
2022/04/08 13:27:01;;;;;;;186.30;84.97;;;;;;;;;;5074688;28;21038;-73
2022/04/08 13:29:29;;;;;;;127.43;71.27;;;;;;;;;;5114177;28;20446;-74
2022/04/08 13:31:58;;;;;;;162.87;82.57;;;;;;;;;;5110213;28;20470;-74
2022/04/08 13:34:31;;;;;;;194.00;86.17;;;;;;;;;;5093386;28;20444;-74
2022/04/08 13:36:59;;;;;;;129.87;75.77;;;;;;;;;;5094444;28;20462;-74
2022/04/08 13:39:29;;;;;;;162.37;81.00;;;;;;;;;;5094086;28;20490;-74
2022/04/08 13:41:59;;;;;;;161.30;84.17;;;;;;;;;;5091700;28;20494;-74
2022/04/08 13:44:26;;;;;;;157.77;79.97;;;;;;;;;;5085976;28;20911;-74
2022/04/08 13:46:59;;;;;;;140.00;81.47;;;;;;;;;;5084495;28;20472;-74
2022/04/08 13:49:30;;;;;;;174.87;82.60;;;;;;;;;;5076669;28;20950;-73
2022/04/08 13:52:01;;;;;;;158.77;85.23;;;;;;;;;;5089871;28;20744;-74
2022/04/08 13:54:36;;;;;;;195.03;86.50;;;;;;;;;;5103106;28;20474;-75
2022/04/08 13:57:09;;;;;;;190.13;81.40;;;;;;;;;;5114913;28;20466;-75
2022/04/08 13:59:37;;;;;;;197.30;84.47;;;;;;;;;;5112635;28;20814;-74
2022/04/08 14:02:05;;;;;;;201.73;87.37;;;;;;;;;;5113945;28;20904;-74
2022/04/08 14:04:42;;;;;;;191.63;85.27;;;;;;;;;;5114753;28;20438;-74
2022/04/08 14:07:09;;;;;;;197.53;86.77;;;;;;;;;;5113684;28;20593;-74
2022/04/08 14:09:39;;;;;;;174.70;74.57;;;;;;;;;;5114130;28;20458;-74
2022/04/08 14:12:07;;;;;;;197.77;88.93;;;;;;;;;;5112866;28;20521;-74
2022/04/08 14:14:47;;;;;;;165.70;76.03;;;;;;;;;;5093567;28;20860;-74
2022/04/08 14:17:16;;;;;;;169.27;73.97;;;;;;;;;;5078447;28;20453;-74
2022/04/08 14:19:45;;;;;;;176.67;79.90;;;;;;;;;;5092454;28;20562;-73
2022/04/08 14:22:13;;;;;;;161.30;76.10;;;;;;;;;;5093325;28;20477;-73
2022/04/08 14:24:42;;;;;;;169.43;79.57;;;;;;;;;;5094270;28;20519;-75
2022/04/08 14:27:10;;;;;;;213.60;86.23;;;;;;;;;;5094284;28;20479;-74
2022/04/08 14:29:38;;;;;;;167.97;78.53;;;;;;;;;;5092299;28;20458;-74
2022/04/08 14:32:06;;;;;;;162.40;76.43;;;;;;;;;;5093253;28;20500;-74
2022/04/08 14:34:34;;;;;;;189.50;81.33;;;;;;;;;;5080342;28;20523;-74
2022/04/08 14:37:02;;;;;;;181.70;81.13;;;;;;;;;;5092518;28;20447;-74
2022/04/08 14:39:31;;;;;;;162.77;79.33;;;;;;;;;;5094556;28;20477;-74
2022/04/08 14:42:07;;;;;;;178.70;82.90;;;;;;;;;;5084844;28;20484;-74
2022/04/08 14:44:49;;;;;;;193.70;90.63;;;;;;;;;;5098977;28;20753;-74
2022/04/08 14:47:18;;;;;;;172.27;82.90;;;;;;;;;;5100883;28;20842;-74
2022/04/08 14:49:47;;;;;;;194.23;84.73;;;;;;;;;;5076891;28;20787;-74
2022/04/08 14:52:19;;;;;;;194.53;84.23;;;;;;;;;;5091137;28;20792;-73
2022/04/08 14:54:48;;;;;;;163.67;79.60;;;;;;;;;;5099766;28;20457;-73
2022/04/08 14:57:19;;;;;;;180.87;80.00;;;;;;;;;;5098797;28;20494;-74
2022/04/08 14:59:46;;;;;;;156.73;79.87;;;;;;;;;;5115986;28;20492;-74
2022/04/08 15:02:15;;;;;;;125.43;64.37;;;;;;;;;;5116365;28;20450;-73
2022/04/08 15:04:42;;;;;;;119.03;59.07;;;;;;;;;;5116541;28;20816;-74
2022/04/08 15:07:10;;;;;;;144.47;70.77;;;;;;;;;;5096127;28;20458;-74